Time;durP1;ratioP1;P1;durP2;ratioP2;P2;SDS_P1;SDS_P2;PMS_P1;PMS_P2;Temp;Humidity;BMP_temperature;BMP_pressure;BME280_temperature;BME280_humidity;BME280_pressure;Samples;Min_cycle;Max_cycle;Signal;HPM_P1;HPM_P2
2023/03/16 00:01:06;;;;;;;20.00;14.90;;;;;;;7.03;65.37;99761.43;105443;1257;66159;-47
2023/03/16 00:03:35;;;;;;;13.80;5.70;;;;;;;7.03;65.55;99761.95;105567;1254;64854;-47
2023/03/16 00:06:04;;;;;;;21.80;14.50;;;;;;;7.00;65.60;99761.14;108328;1258;65476;-47
2023/03/16 00:08:37;;;;;;;21.30;16.20;;;;;;;6.98;65.75;99760.90;105555;1254;60568;-46
2023/03/16 00:11:06;;;;;;;24.10;15.00;;;;;;;6.98;65.83;99764.95;105403;1259;60396;-47
2023/03/16 00:13:35;;;;;;;20.20;13.90;;;;;;;7.02;65.74;99763.02;105315;1254;66193;-47
2023/03/16 00:16:03;;;;;;;19.00;13.80;;;;;;;7.10;65.66;99763.86;105401;1254;62367;-47
2023/03/16 00:18:37;;;;;;;19.70;14.30;;;;;;;7.15;65.65;99760.64;105264;1259;64768;-47
2023/03/16 00:21:06;;;;;;;18.90;13.30;;;;;;;7.19;65.58;99758.94;105429;1260;60377;-48
2023/03/16 00:23:36;;;;;;;18.40;13.70;;;;;;;7.15;65.60;99754.41;105164;1254;60432;-48
2023/03/16 00:26:07;;;;;;;21.50;14.30;;;;;;;7.09;65.60;99754.00;105533;1258;66116;-48
2023/03/16 00:28:38;;;;;;;19.30;13.30;;;;;;;7.11;65.55;99752.58;105192;1254;63119;-48
2023/03/16 00:31:10;;;;;;;22.40;15.00;;;;;;;7.12;65.36;99754.08;105109;1254;254694;-49
2023/03/16 00:35:22;;;;;;;15.20;6.80;;;;;;;6.96;65.93;99759.84;102374;1292;600899;-47
2023/03/16 00:37:50;;;;;;;20.80;14.20;;;;;;;7.13;65.43;99756.81;104453;1270;59553;-47
2023/03/16 00:40:19;;;;;;;20.40;13.30;;;;;;;7.21;65.56;99756.17;104696;1268;59360;-46
2023/03/16 00:42:47;;;;;;;18.60;14.10;;;;;;;7.29;65.65;99753.69;104782;1269;64586;-47
2023/03/16 00:45:16;;;;;;;20.30;13.90;;;;;;;7.34;65.72;99756.14;104670;1269;63037;-46
2023/03/16 00:47:45;;;;;;;17.50;13.70;;;;;;;7.35;65.85;99752.90;104379;1269;176431;-47
2023/03/16 00:50:14;;;;;;;19.60;14.20;;;;;;;7.37;65.87;99756.61;105252;1262;59374;-47
2023/03/16 00:52:43;;;;;;;23.90;15.00;;;;;;;7.34;65.91;99762.77;105153;1269;59234;-47
2023/03/16 00:55:11;;;;;;;22.70;15.10;;;;;;;7.33;65.94;99761.45;106889;1266;64564;-47
2023/03/16 00:57:43;;;;;;;19.20;15.40;;;;;;;7.31;65.88;99761.71;104699;1267;62238;-46
2023/03/16 01:00:15;;;;;;;21.10;14.10;;;;;;;7.29;65.92;99761.72;104891;1263;63816;-47
2023/03/16 01:02:48;;;;;;;;;;;;;;;7.31;65.80;99754.63;104714;1266;59666;-47
2023/03/16 01:05:18;;;;;;;18.80;13.60;;;;;;;7.35;65.80;99753.95;104833;1268;59645;-47
2023/03/16 01:07:47;;;;;;;18.90;12.80;;;;;;;7.38;65.96;99756.86;105031;1267;65377;-46
2023/03/16 01:10:16;;;;;;;19.80;13.20;;;;;;;7.40;66.34;99760.52;104929;1265;62440;-46
2023/03/16 01:12:45;;;;;;;16.10;12.30;;;;;;;7.44;66.51;99761.95;105614;1266;64026;-45
2023/03/16 01:15:14;;;;;;;20.70;13.50;;;;;;;7.47;66.56;99768.35;105029;1264;59603;-45
2023/03/16 01:17:42;;;;;;;21.90;13.50;;;;;;;7.50;66.55;99769.56;105275;1265;59861;-46
2023/03/16 01:20:14;;;;;;;19.30;13.30;;;;;;;7.51;66.42;99769.60;104659;1267;65120;-46
2023/03/16 01:22:43;;;;;;;17.80;13.30;;;;;;;7.49;66.23;99769.59;108633;1266;62505;-46
2023/03/16 01:25:12;;;;;;;18.50;14.00;;;;;;;7.46;66.12;99769.16;108492;1263;64934;-46
2023/03/16 01:27:41;;;;;;;17.40;13.10;;;;;;;7.42;65.94;99772.56;105060;1269;59749;-46
2023/03/16 01:30:11;;;;;;;19.90;12.60;;;;;;;7.39;66.01;99775.05;104803;1265;59638;-46
2023/03/16 01:32:40;;;;;;;19.80;12.30;;;;;;;7.43;66.01;99774.63;106417;1266;65398;-46
2023/03/16 01:35:12;;;;;;;18.50;13.30;;;;;;;7.54;65.72;99776.40;105348;1266;63157;-46
2023/03/16 01:37:41;;;;;;;18.00;11.90;;;;;;;7.61;65.66;99775.33;104793;1264;65168;-47
2023/03/16 01:40:15;;;;;;;17.10;12.70;;;;;;;7.65;65.80;99773.80;105798;1259;59838;-46
2023/03/16 01:42:47;;;;;;;17.90;13.10;;;;;;;7.66;65.71;99770.41;105540;1258;59769;-46
2023/03/16 01:45:54;;;;;;;17.40;12.50;;;;;;;7.66;65.65;99772.52;104884;1264;65416;-46
2023/03/16 01:48:24;;;;;;;19.30;12.90;;;;;;;7.65;65.71;99778.17;105203;1258;62318;-47
2023/03/16 01:50:53;;;;;;;19.70;13.50;;;;;;;7.62;65.76;99781.46;105225;1261;64798;-47
2023/03/16 01:53:23;;;;;;;19.40;11.80;;;;;;;7.59;65.86;99784.67;105348;1262;59752;-47
2023/03/16 01:55:54;;;;;;;17.80;11.90;;;;;;;7.57;66.04;99789.05;105364;1257;59695;-47
2023/03/16 01:58:22;;;;;;;17.80;11.80;;;;;;;7.61;66.03;99792.89;105382;1263;64440;-47
2023/03/16 02:00:50;;;;;;;16.60;11.90;;;;;;;7.71;65.89;99793.23;105383;1259;61482;-47
2023/03/16 02:03:22;;;;;;;19.60;12.80;;;;;;;7.76;65.95;99789.20;105469;1260;64946;-46
2023/03/16 02:06:02;;;;;;;14.00;6.40;;;;;;;7.77;66.20;99789.77;105547;1261;61944;-46
2023/03/16 02:08:32;;;;;;;22.10;14.30;;;;;;;7.77;66.23;99794.48;105019;1257;59759;-46
2023/03/16 02:11:00;;;;;;;18.80;13.80;;;;;;;7.76;66.25;99799.45;105159;1257;65358;-46
2023/03/16 02:13:47;;;;;;;;;;;;;;;7.74;66.23;99806.27;105319;1260;62509;-47
2023/03/16 02:16:18;;;;;;;19.00;13.50;;;;;;;7.71;66.35;99810.36;105061;1264;63752;-47
2023/03/16 02:18:49;;;;;;;19.50;13.80;;;;;;;7.69;66.29;99808.61;105347;1263;59668;-47
2023/03/16 02:21:31;;;;;;;16.70;11.90;;;;;;;7.71;66.18;99809.48;106139;1256;59686;-46
2023/03/16 02:24:01;;;;;;;18.30;12.60;;;;;;;7.77;66.18;99812.64;105457;1263;65374;-47
2023/03/16 02:26:39;;;;;;;15.60;11.70;;;;;;;7.84;66.01;99817.40;105286;1257;62769;-47
2023/03/16 02:29:19;;;;;;;17.40;12.60;;;;;;;7.89;66.17;99825.17;105175;1262;65069;-47
2023/03/16 02:31:50;;;;;;;23.00;14.20;;;;;;;7.92;66.10;99828.98;105233;1255;59752;-47
2023/03/16 02:34:20;;;;;;;19.50;13.80;;;;;;;7.90;65.94;99824.23;105051;1261;59821;-46
2023/03/16 02:36:48;;;;;;;21.10;14.30;;;;;;;7.89;65.93;99821.88;106274;1258;65389;-46
2023/03/16 02:39:17;;;;;;;17.70;13.70;;;;;;;7.86;65.73;99817.05;105545;1261;62326;-46
2023/03/16 02:41:46;;;;;;;21.70;16.00;;;;;;;7.80;65.62;99808.92;105673;1261;64739;-47
2023/03/16 02:44:17;;;;;;;22.30;15.10;;;;;;;7.74;65.85;99799.33;105505;1270;59806;-47
2023/03/16 02:46:46;;;;;;;24.20;15.50;;;;;;;7.69;65.88;99791.66;105237;1257;59670;-47
2023/03/16 02:49:26;;;;;;;22.20;15.70;;;;;;;7.71;65.78;99795.54;105131;1260;64372;-46
2023/03/16 02:51:56;;;;;;;23.40;15.10;;;;;;;7.67;65.65;99793.75;105219;1257;63384;-47
2023/03/16 02:54:24;;;;;;;19.50;14.60;;;;;;;7.61;66.01;99796.77;105269;1254;64065;-46
2023/03/16 02:56:53;;;;;;;22.90;16.30;;;;;;;7.61;66.29;99804.63;105328;1260;59762;-46
2023/03/16 02:59:21;;;;;;;21.50;15.60;;;;;;;7.61;66.26;99808.15;106154;1259;59673;-46
2023/03/16 03:01:57;;;;;;;12.10;6.40;;;;;;;7.58;66.31;99807.16;105173;1258;65438;-46
2023/03/16 03:04:25;;;;;;;22.50;16.40;;;;;;;7.55;66.35;99805.77;105422;1260;61374;-46
2023/03/16 03:06:54;;;;;;;22.20;15.10;;;;;;;7.54;66.26;99810.94;105249;1254;64745;-46
2023/03/16 03:09:22;;;;;;;22.40;15.50;;;;;;;7.52;66.33;99799.94;105292;1259;59664;-47
2023/03/16 03:11:53;;;;;;;17.50;13.80;;;;;;;7.55;66.25;99805.10;105374;1254;59743;-48
2023/03/16 03:14:24;;;;;;;19.60;14.90;;;;;;;7.57;66.37;99806.84;105509;1258;65329;-48
2023/03/16 03:16:53;;;;;;;18.60;13.30;;;;;;;7.62;66.50;99805.98;105264;1258;62639;-47
2023/03/16 03:19:22;;;;;;;20.40;13.30;;;;;;;7.64;66.43;99805.11;105212;1259;65054;-49
2023/03/16 03:21:55;;;;;;;19.50;14.50;;;;;;;7.66;66.52;99804.96;108348;1256;58448;-47
2023/03/16 03:24:24;;;;;;;20.40;14.00;;;;;;;7.68;66.44;99802.39;105216;1258;59697;-47
2023/03/16 03:26:52;;;;;;;18.00;13.30;;;;;;;7.68;66.23;99797.11;105431;1259;65219;-46
2023/03/16 03:29:21;;;;;;;22.80;14.10;;;;;;;7.65;65.98;99796.46;105226;1254;62563;-47
2023/03/16 03:31:49;;;;;;;21.00;14.80;;;;;;;7.59;66.05;99795.17;105149;1260;65073;-47
2023/03/16 03:34:22;;;;;;;44.90;27.60;;;;;;;7.59;65.97;99796.41;105149;1257;59716;-47
2023/03/16 03:36:52;;;;;;;71.00;39.70;;;;;;;7.66;65.63;99798.34;105437;1254;60473;-47
2023/03/16 03:39:21;;;;;;;80.70;47.00;;;;;;;7.72;65.48;99802.27;105109;1257;66777;-47
2023/03/16 03:41:54;;;;;;;88.70;49.90;;;;;;;7.78;65.41;99809.11;105222;1256;62661;-47
2023/03/16 03:44:23;;;;;;;53.10;30.10;;;;;;;7.78;65.29;99813.30;105250;1257;64826;-47
2023/03/16 03:46:52;;;;;;;40.10;24.60;;;;;;;7.74;65.25;99809.26;105708;1257;59599;-47
2023/03/16 03:49:21;;;;;;;26.30;18.10;;;;;;;7.69;65.36;99815.08;105242;1257;59731;-47
2023/03/16 03:51:51;;;;;;;31.00;19.00;;;;;;;7.59;65.42;99819.50;105218;1259;65383;-48
2023/03/16 03:54:24;;;;;;;27.10;17.80;;;;;;;7.52;65.39;99817.73;105460;1254;62538;-47
2023/03/16 03:57:04;;;;;;;30.60;20.40;;;;;;;7.41;65.60;99815.60;105393;1257;64738;-47
2023/03/16 03:59:33;;;;;;;47.50;28.20;;;;;;;7.36;65.73;99819.65;104978;1257;60547;-47
2023/03/16 04:02:22;;;;;;;53.70;31.30;;;;;;;7.41;65.68;99814.90;105327;1259;59563;-48
2023/03/16 04:04:57;;;;;;;31.50;21.70;;;;;;;7.47;65.36;99811.50;105090;1257;65446;-48
2023/03/16 04:07:25;;;;;;;26.30;16.40;;;;;;;7.47;65.31;99814.48;105237;1257;62615;-53
2023/03/16 04:09:55;;;;;;;20.90;14.60;;;;;;;7.45;65.46;99817.02;105285;1260;65531;-48
2023/03/16 04:12:35;;;;;;;19.20;14.90;;;;;;;7.44;65.39;99819.58;105145;1258;59723;-48
2023/03/16 04:15:05;;;;;;;19.20;15.40;;;;;;;7.40;65.44;99821.93;105191;1256;59679;-48
2023/03/16 04:17:43;;;;;;;23.30;15.80;;;;;;;7.40;65.53;99822.31;105588;1257;64511;-46
2023/03/16 04:20:13;;;;;;;17.50;13.70;;;;;;;7.40;65.49;99822.95;105251;1256;61506;-45
2023/03/16 04:22:42;;;;;;;19.40;13.40;;;;;;;7.47;65.44;99823.54;105253;1260;64836;-47
2023/03/16 04:25:15;;;;;;;17.60;13.70;;;;;;;7.52;65.15;99824.88;105158;1260;59809;-47
2023/03/16 04:27:45;;;;;;;18.10;13.90;;;;;;;7.56;65.23;99830.67;105668;1257;59701;-46
2023/03/16 04:30:15;;;;;;;21.80;15.40;;;;;;;7.56;65.13;99828.04;105141;1257;65217;-46
2023/03/16 04:32:48;;;;;;;21.50;14.40;;;;;;;7.53;65.12;99822.88;105271;1258;64519;-47
2023/03/16 04:35:19;;;;;;;24.40;18.10;;;;;;;7.50;65.03;99823.49;105118;1258;65021;-48
2023/03/16 04:37:49;;;;;;;22.30;16.30;;;;;;;7.47;65.23;99827.75;105256;1258;59730;-47
2023/03/16 04:40:19;;;;;;;23.60;16.90;;;;;;;7.43;65.20;99833.56;105031;1258;59715;-46
2023/03/16 04:42:53;;;;;;;24.70;17.40;;;;;;;7.38;65.19;99841.10;105292;1259;65122;-46
2023/03/16 04:45:23;;;;;;;27.10;18.00;;;;;;;7.31;65.40;99845.85;105404;1259;61636;-48
2023/03/16 04:47:52;;;;;;;22.80;16.50;;;;;;;7.30;65.43;99852.25;105225;1260;64592;-46
2023/03/16 04:50:21;;;;;;;24.40;16.20;;;;;;;7.32;65.52;99853.27;105163;1254;60521;-46
2023/03/16 04:52:53;;;;;;;23.70;17.80;;;;;;;7.37;65.63;99852.56;105248;1257;60329;-46
2023/03/16 04:55:23;;;;;;;24.80;18.00;;;;;;;7.42;65.75;99851.46;105377;1260;66020;-46
2023/03/16 04:57:53;;;;;;;31.10;21.40;;;;;;;7.44;65.62;99851.63;105190;1259;62637;-45
2023/03/16 05:00:22;;;;;;;33.00;23.60;;;;;;;7.43;65.67;99856.77;105276;1259;64767;-47
2023/03/16 05:02:57;;;;;;;20.60;10.40;;;;;;;7.42;65.80;99860.71;105021;1257;60620;-46
2023/03/16 05:05:25;;;;;;;34.60;25.10;;;;;;;7.34;66.17;99863.90;105127;1261;60627;-46
2023/03/16 05:07:54;;;;;;;22.60;12.80;;;;;;;7.26;66.57;99865.93;105298;1254;66170;-46
2023/03/16 05:10:24;;;;;;;40.40;27.10;;;;;;;7.14;67.46;99871.68;105310;1259;62656;-46
2023/03/16 05:12:54;;;;;;;37.10;25.70;;;;;;;7.00;68.28;99876.35;105347;1257;64954;-46
2023/03/16 05:15:23;;;;;;;41.50;28.10;;;;;;;6.86;69.15;99884.20;105327;1257;60404;-47
2023/03/16 05:18:12;;;;;;;31.80;24.70;;;;;;;6.78;69.29;99888.42;105286;1259;60460;-47
2023/03/16 05:20:41;;;;;;;25.60;9.60;;;;;;;6.77;69.43;99892.35;105385;1259;66195;-47
2023/03/16 05:23:10;;;;;;;35.50;25.80;;;;;;;6.74;69.59;99899.00;105250;1257;62820;-47
2023/03/16 05:25:46;;;;;;;35.70;25.90;;;;;;;6.71;69.74;99902.19;105276;1260;64853;-47
2023/03/16 05:28:15;;;;;;;37.90;24.80;;;;;;;6.69;69.74;99906.63;105577;1257;60466;-47
2023/03/16 05:30:50;;;;;;;21.70;10.00;;;;;;;6.75;69.74;99908.36;105253;1260;61186;-47
2023/03/16 05:33:22;;;;;;;37.70;27.40;;;;;;;6.82;69.49;99909.20;105218;1260;65888;-46
2023/03/16 05:35:56;;;;;;;36.00;27.30;;;;;;;6.86;69.47;99912.06;105544;1257;62364;-47
2023/03/16 05:38:26;;;;;;;24.30;10.80;;;;;;;6.86;69.39;99911.73;105469;1257;64838;-47
2023/03/16 05:41:00;;;;;;;36.40;25.20;;;;;;;6.83;69.48;99908.25;104948;1258;60438;-47
2023/03/16 05:43:44;;;;;;;32.10;24.60;;;;;;;6.85;69.56;99911.58;105021;1260;60630;-47
2023/03/16 05:46:13;;;;;;;36.90;24.50;;;;;;;6.89;69.55;99913.63;105037;1256;66018;-49
2023/03/16 05:48:42;;;;;;;35.60;27.40;;;;;;;6.90;69.67;99913.34;105722;1254;62395;-49
2023/03/16 05:51:16;;;;;;;35.70;25.60;;;;;;;6.90;69.64;99913.04;105169;1256;64834;-49
2023/03/16 05:53:45;;;;;;;29.30;12.30;;;;;;;6.89;69.72;99914.30;105108;1257;60620;-47
2023/03/16 05:56:20;;;;;;;21.80;11.80;;;;;;;6.91;69.63;99913.29;105043;1254;60548;-47
2023/03/16 05:58:51;;;;;;;44.90;28.40;;;;;;;6.88;69.93;99911.96;105550;1256;66101;-48
2023/03/16 06:01:19;;;;;;;46.40;28.40;;;;;;;6.79;70.35;99917.45;105428;1259;61436;-50
2023/03/16 06:03:48;;;;;;;41.30;27.20;;;;;;;6.75;70.63;99927.15;105457;1260;64022;-46
2023/03/16 06:06:20;;;;;;;37.20;26.70;;;;;;;6.82;70.75;99924.58;104866;1258;60575;-48
2023/03/16 06:09:02;;;;;;;34.20;26.10;;;;;;;6.90;70.33;99928.57;105229;1254;60644;-48
2023/03/16 06:11:31;;;;;;;41.00;26.30;;;;;;;6.92;70.16;99931.91;105046;1256;65608;-48
2023/03/16 06:14:01;;;;;;;37.00;26.60;;;;;;;6.92;70.25;99939.40;105176;1254;63845;-47
2023/03/16 06:16:31;;;;;;;25.60;11.70;;;;;;;6.94;70.11;99939.81;104973;1255;63760;-47
2023/03/16 06:19:00;;;;;;;38.80;25.90;;;;;;;6.99;69.82;99948.11;105186;1259;60559;-47
2023/03/16 06:21:30;;;;;;;33.90;24.90;;;;;;;7.04;69.59;99946.55;105458;1259;61807;-48
2023/03/16 06:24:07;;;;;;;28.10;15.20;;;;;;;7.07;69.31;99948.94;105343;1259;66106;-47
2023/03/16 06:26:37;;;;;;;48.90;33.70;;;;;;;7.04;69.08;99950.58;105039;1257;62780;-47
2023/03/16 06:29:07;;;;;;;53.40;32.90;;;;;;;6.99;68.96;99955.64;104667;1261;65049;-48
2023/03/16 06:31:40;;;;;;;49.00;33.80;;;;;;;6.92;69.02;99961.69;105091;1256;60539;-48
2023/03/16 06:34:08;;;;;;;31.60;13.20;;;;;;;6.91;68.99;99962.31;104713;1256;60521;-48
2023/03/16 06:36:38;;;;;;;26.90;13.20;;;;;;;6.93;68.91;99963.89;104878;1260;66130;-48
2023/03/16 06:39:10;;;;;;;50.20;33.90;;;;;;;6.94;68.97;99966.98;105041;1260;62597;-49
2023/03/16 06:41:45;;;;;;;27.90;14.20;;;;;;;6.91;69.09;99969.60;105094;1255;65085;-48
2023/03/16 06:44:16;;;;;;;46.00;31.60;;;;;;;6.82;69.06;99968.14;106883;1259;60654;-49
2023/03/16 06:46:57;;;;;;;48.80;30.70;;;;;;;6.75;69.22;99970.08;107185;1254;60431;-47
2023/03/16 06:49:25;;;;;;;43.90;28.80;;;;;;;6.68;69.32;99974.01;105530;1260;66097;-47
2023/03/16 06:51:57;;;;;;;48.90;31.00;;;;;;;6.61;69.39;99978.84;104822;1257;62636;-47
2023/03/16 06:54:26;;;;;;;47.80;29.80;;;;;;;6.51;69.65;99979.94;105057;1259;64893;-48
2023/03/16 06:56:55;;;;;;;28.70;13.00;;;;;;;6.41;69.95;99978.01;105331;1254;60537;-48
2023/03/16 06:59:24;;;;;;;30.00;14.00;;;;;;;6.35;70.04;99980.69;105030;1256;60457;-48
2023/03/16 07:01:52;;;;;;;42.60;28.30;;;;;;;6.23;70.53;99977.13;105551;1260;66249;-48
2023/03/16 07:04:22;;;;;;;48.10;30.00;;;;;;;6.11;70.85;99974.08;105076;1259;61653;-48
2023/03/16 07:06:50;;;;;;;45.90;28.60;;;;;;;6.06;71.13;99979.69;107094;1256;73683;-49
2023/03/16 07:09:20;;;;;;;26.90;13.50;;;;;;;6.06;71.14;99982.63;105142;1258;60801;-48
2023/03/16 07:11:51;;;;;;;44.10;29.40;;;;;;;6.04;71.30;99988.70;105268;1257;60528;-47
2023/03/16 07:14:22;;;;;;;46.80;25.80;;;;;;;5.99;71.45;99986.56;105035;1259;66110;-47
2023/03/16 07:16:55;;;;;;;24.80;9.80;;;;;;;5.97;71.39;99986.37;105238;1259;61737;-48
2023/03/16 07:19:24;;;;;;;26.00;12.20;;;;;;;5.95;71.34;99988.06;105015;1256;64787;-46
2023/03/16 07:21:57;;;;;;;40.20;25.60;;;;;;;5.88;71.38;99989.90;105616;1256;60521;-47
2023/03/16 07:24:25;;;;;;;38.00;24.50;;;;;;;5.79;71.62;99997.08;105251;1257;60476;-48
2023/03/16 07:26:54;;;;;;;20.50;9.40;;;;;;;5.78;71.82;100000.30;105120;1260;65795;-48
2023/03/16 07:29:29;;;;;;;23.70;11.90;;;;;;;5.81;71.79;100007.46;105392;1255;62731;-46
2023/03/16 07:31:58;;;;;;;27.90;10.40;;;;;;;5.80;71.72;100010.83;105292;1256;65052;-47
2023/03/16 07:34:32;;;;;;;30.00;13.10;;;;;;;5.75;71.69;100017.19;105468;1256;60481;-48
2023/03/16 07:37:02;;;;;;;35.50;22.30;;;;;;;5.69;71.84;100018.48;105596;1257;60463;-47
2023/03/16 07:39:31;;;;;;;34.80;21.60;;;;;;;5.66;71.90;100020.42;105474;1260;66132;-47
2023/03/16 07:42:07;;;;;;;19.30;9.30;;;;;;;5.64;71.96;100023.51;105521;1256;62352;-47
2023/03/16 07:44:47;;;;;;;22.70;10.90;;;;;;;5.57;72.06;100028.80;104985;1257;64821;-49
2023/03/16 07:47:19;;;;;;;34.80;21.70;;;;;;;5.53;72.22;100031.89;105257;1260;60849;-46
2023/03/16 07:49:48;;;;;;;19.80;10.00;;;;;;;5.54;72.54;100031.66;105153;1256;60537;-47
2023/03/16 07:52:17;;;;;;;35.80;23.40;;;;;;;5.57;72.44;100034.06;105341;1255;65925;-48
2023/03/16 07:54:47;;;;;;;18.50;8.80;;;;;;;5.55;72.45;100034.86;105284;1259;61585;-49
2023/03/16 07:57:16;;;;;;;37.10;22.10;;;;;;;5.55;72.48;100039.91;105565;1257;64666;-49
2023/03/16 07:59:46;;;;;;;27.20;11.50;;;;;;;5.59;72.51;100041.23;105312;1256;60585;-47
2023/03/16 08:02:18;;;;;;;40.80;22.90;;;;;;;5.64;72.29;100041.44;105317;1256;60479;-47
2023/03/16 08:04:47;;;;;;;23.80;9.60;;;;;;;5.63;72.21;100039.96;105391;1257;66229;-48
2023/03/16 08:07:16;;;;;;;25.80;9.30;;;;;;;5.61;72.33;100039.36;105488;1256;62354;-48
2023/03/16 08:09:59;;;;;;;24.70;10.00;;;;;;;5.65;72.16;100042.09;105310;1256;64815;-48
2023/03/16 08:12:33;;;;;;;23.00;11.60;;;;;;;5.68;72.04;100041.02;105115;1255;60539;-47
2023/03/16 08:15:04;;;;;;;34.80;23.40;;;;;;;5.66;72.00;100039.05;105489;1257;60491;-47
2023/03/16 08:17:33;;;;;;;23.00;10.80;;;;;;;5.62;71.98;100037.06;105333;1256;68328;-47
2023/03/16 08:20:09;;;;;;;36.60;22.20;;;;;;;5.55;72.08;100038.85;105195;1255;62726;-47
2023/03/16 08:22:45;;;;;;;24.20;9.70;;;;;;;5.57;72.07;100039.78;105421;1260;65001;-47
2023/03/16 08:25:14;;;;;;;20.80;10.00;;;;;;;5.57;72.24;100038.05;105472;1261;60595;-47
2023/03/16 08:27:52;;;;;;;37.60;23.20;;;;;;;5.52;72.35;100039.24;105261;1256;60447;-47
2023/03/16 08:30:21;;;;;;;19.50;9.60;;;;;;;5.52;72.34;100045.02;105270;1255;66224;-48
2023/03/16 08:33:00;;;;;;;33.30;22.90;;;;;;;5.56;72.32;100050.80;105012;1257;62793;-49
2023/03/16 08:35:30;;;;;;;20.40;10.60;;;;;;;5.55;72.33;100049.13;106145;1256;65059;-48
2023/03/16 08:37:59;;;;;;;21.40;11.50;;;;;;;5.53;72.29;100049.46;105225;1256;60619;-47
2023/03/16 08:40:28;;;;;;;19.30;8.90;;;;;;;5.53;72.22;100049.78;105778;1256;60552;-48
2023/03/16 08:42:57;;;;;;;38.20;24.90;;;;;;;5.56;72.15;100050.10;105228;1257;66037;-47
2023/03/16 08:45:26;;;;;;;39.00;24.00;;;;;;;5.56;72.18;100055.66;105398;1257;63524;-47
2023/03/16 08:47:55;;;;;;;19.20;11.10;;;;;;;5.54;72.09;100059.27;105160;1256;64742;-47
2023/03/16 08:50:26;;;;;;;28.50;11.30;;;;;;;5.60;71.94;100062.59;105263;1256;60982;-48
2023/03/16 08:52:55;;;;;;;38.70;25.00;;;;;;;5.66;71.98;100064.64;105826;1256;60502;-47
2023/03/16 08:55:25;;;;;;;25.90;12.20;;;;;;;5.71;71.99;100068.84;105401;1259;74804;-49
2023/03/16 08:57:53;;;;;;;37.50;24.90;;;;;;;5.74;71.95;100067.77;105419;1256;62352;-48
2023/03/16 09:00:22;;;;;;;25.40;10.20;;;;;;;5.82;71.66;100072.29;105329;1259;65225;-47
2023/03/16 09:02:50;;;;;;;37.70;24.10;;;;;;;5.90;71.20;100080.08;105401;1256;60489;-47
2023/03/16 09:05:19;;;;;;;21.10;12.40;;;;;;;5.94;71.14;100084.02;105398;1256;60534;-48
2023/03/16 09:07:47;;;;;;;21.50;10.50;;;;;;;5.96;71.02;100088.62;105315;1260;66059;-48
2023/03/16 09:10:21;;;;;;;24.00;11.40;;;;;;;5.98;70.86;100089.54;105998;1256;62491;-48
2023/03/16 09:12:51;;;;;;;35.80;24.50;;;;;;;6.03;70.67;100093.23;105226;1256;64216;-48
2023/03/16 09:15:19;;;;;;;41.20;26.00;;;;;;;6.03;70.62;100099.83;105783;1256;60563;-49
2023/03/16 09:17:47;;;;;;;31.80;13.20;;;;;;;6.01;70.68;100095.49;105258;1256;60457;-48
2023/03/16 09:20:17;;;;;;;39.40;25.00;;;;;;;5.99;70.82;100091.91;105187;1259;66193;-48
2023/03/16 09:23:06;;;;;;;39.80;25.50;;;;;;;6.02;70.93;100091.02;105122;1260;61587;-48
2023/03/16 09:25:35;;;;;;;26.20;12.70;;;;;;;6.04;71.19;100099.09;105373;1257;64967;-48
2023/03/16 09:28:04;;;;;;;38.00;24.40;;;;;;;6.06;71.19;100102.81;105271;1256;60961;-49
2023/03/16 09:30:33;;;;;;;38.80;24.80;;;;;;;6.11;71.10;100104.16;105536;1256;60424;-48
2023/03/16 09:33:03;;;;;;;39.30;25.10;;;;;;;6.17;70.93;100105.05;105623;1259;66183;-48
2023/03/16 09:35:35;;;;;;;27.30;12.10;;;;;;;6.17;70.88;100106.25;105421;1256;61689;-48
2023/03/16 09:38:06;;;;;;;40.00;26.00;;;;;;;6.11;70.95;100105.91;105429;1259;65261;-48
2023/03/16 09:40:34;;;;;;;41.30;25.30;;;;;;;6.11;71.06;100104.04;105392;1259;60444;-48
2023/03/16 09:43:12;;;;;;;37.20;25.30;;;;;;;6.18;71.20;100105.48;105130;1256;60556;-48
2023/03/16 09:45:47;;;;;;;42.30;25.20;;;;;;;6.23;71.28;100107.41;105281;1259;66183;-48
2023/03/16 09:48:19;;;;;;;21.20;9.70;;;;;;;6.26;71.26;100109.65;105380;1257;62812;-48
2023/03/16 09:50:48;;;;;;;21.60;10.70;;;;;;;6.30;71.27;100113.40;105346;1257;65216;-47
2023/03/16 09:53:24;;;;;;;32.20;23.60;;;;;;;6.37;70.93;100110.86;105424;1254;60458;-47
2023/03/16 09:56:12;;;;;;;36.50;25.00;;;;;;;6.45;70.66;100110.48;105370;1256;60304;-47
2023/03/16 09:58:40;;;;;;;41.10;27.40;;;;;;;6.49;70.39;100112.48;105677;1256;64896;-47
2023/03/16 10:01:15;;;;;;;39.20;25.40;;;;;;;6.48;70.24;100114.10;105331;1256;62642;-48
2023/03/16 10:04:06;;;;;;;25.40;12.40;;;;;;;6.46;70.28;100115.30;105266;1257;64897;-48
2023/03/16 10:06:49;;;;;;;39.50;25.70;;;;;;;6.51;70.21;100107.64;105292;1256;60570;-48
2023/03/16 10:09:38;;;;;;;28.30;12.00;;;;;;;6.56;69.99;100105.91;105348;1256;61126;-48
2023/03/16 10:12:07;;;;;;;31.40;11.80;;;;;;;6.57;70.05;100109.18;105369;1261;66036;-48
2023/03/16 10:14:46;;;;;;;42.40;25.10;;;;;;;6.56;70.12;100109.10;105548;1256;62460;-46
2023/03/16 10:17:16;;;;;;;23.20;10.90;;;;;;;6.53;70.13;100106.84;105313;1257;64008;-46
2023/03/16 10:19:53;;;;;;;37.40;24.90;;;;;;;6.59;70.10;100106.80;105171;1259;60560;-61
2023/03/16 10:22:25;;;;;;;37.60;24.90;;;;;;;6.65;70.09;100109.98;105397;1256;60906;-62
2023/03/16 10:25:00;;;;;;;37.30;24.80;;;;;;;6.72;70.10;100112.00;105559;1260;66281;-49
2023/03/16 10:27:31;;;;;;;;;;;;;;;6.72;69.59;100117.92;105179;1260;61644;-46
2023/03/16 10:30:00;;;;;;;20.70;10.90;;;;;;;6.64;69.52;100114.83;105202;1259;64960;-46
2023/03/16 10:32:30;;;;;;;28.40;11.40;;;;;;;6.61;69.53;100119.00;105200;1256;60649;-47
2023/03/16 10:35:19;;;;;;;39.00;24.50;;;;;;;6.61;69.68;100119.90;104918;1256;60516;-46
2023/03/16 10:37:48;;;;;;;37.10;24.00;;;;;;;6.59;69.70;100118.27;105390;1256;65622;-48
2023/03/16 10:40:19;;;;;;;34.80;21.60;;;;;;;6.56;69.74;100124.44;105367;1258;62371;-48
2023/03/16 10:42:47;;;;;;;36.30;21.50;;;;;;;6.56;69.79;100124.73;105520;1256;65020;-47
2023/03/16 10:45:24;;;;;;;32.80;19.90;;;;;;;6.57;69.51;100124.70;105304;1255;60545;-47
2023/03/16 10:47:53;;;;;;;30.20;20.40;;;;;;;6.55;69.62;100126.25;105795;1256;60547;-49
2023/03/16 10:50:24;;;;;;;18.80;8.50;;;;;;;6.50;69.69;100127.75;105268;1256;66136;-47
2023/03/16 10:52:53;;;;;;;33.00;19.70;;;;;;;6.54;69.68;100130.13;105410;1255;62993;-48
2023/03/16 10:55:31;;;;;;;17.70;9.20;;;;;;;6.58;69.49;100126.86;105072;1257;65035;-48
2023/03/16 10:58:00;;;;;;;33.70;20.90;;;;;;;6.58;69.43;100122.86;105494;1259;60556;-48
2023/03/16 11:00:36;;;;;;;32.50;19.60;;;;;;;6.57;69.43;100123.79;105905;1254;60428;-47
2023/03/16 11:03:13;;;;;;;;;;;;;;;6.59;69.47;100123.70;105181;1260;66028;-47
2023/03/16 11:05:41;;;;;;;20.70;8.50;;;;;;;6.60;69.39;100125.67;105325;1254;62519;-46
2023/03/16 11:08:18;;;;;;;31.90;19.90;;;;;;;6.59;69.25;100125.61;104962;1262;64996;-49
2023/03/16 11:10:56;;;;;;;32.40;21.20;;;;;;;6.56;69.42;100125.98;105164;1256;60505;-48
2023/03/16 11:13:32;;;;;;;19.40;10.00;;;;;;;6.58;69.44;100130.23;105355;1254;61474;-47
2023/03/16 11:16:21;;;;;;;22.60;10.20;;;;;;;6.64;69.29;100129.08;105470;1256;66315;-47
2023/03/16 11:19:13;;;;;;;21.70;10.00;;;;;;;6.67;69.23;100129.55;105417;1256;62555;-47
2023/03/16 11:21:45;;;;;;;36.10;21.60;;;;;;;6.67;69.14;100129.08;105291;1257;64987;-47
2023/03/16 11:24:22;;;;;;;30.80;20.20;;;;;;;6.65;69.04;100129.35;105186;1254;60511;-47
2023/03/16 11:26:56;;;;;;;35.60;21.40;;;;;;;6.69;68.84;100128.77;105216;1257;61662;-46
2023/03/16 11:29:46;;;;;;;33.80;21.00;;;;;;;6.69;68.86;100128.93;105284;1258;66174;-47
2023/03/16 11:32:25;;;;;;;23.50;9.40;;;;;;;6.64;68.99;100131.84;105354;1254;62503;-47
2023/03/16 11:34:53;;;;;;;33.50;21.40;;;;;;;6.64;69.13;100136.38;105229;1258;64860;-47
2023/03/16 11:37:41;;;;;;;19.10;8.70;;;;;;;6.67;68.78;100138.61;105405;1258;60424;-49
2023/03/16 11:40:44;;;;;;;32.00;20.40;;;;;;;6.71;68.83;100140.65;105244;1257;60575;-47